createdAt,value
2022-08-24T00:01:59.495Z,2.00
2022-08-24T00:04:28.256Z,2.37
2022-08-24T00:06:56.997Z,2.50
2022-08-24T00:09:25.498Z,2.60
2022-08-24T00:11:54.121Z,2.10
2022-08-24T00:14:22.597Z,2.30
2022-08-24T00:16:51.144Z,2.20
2022-08-24T00:19:21.251Z,2.40
2022-08-24T00:21:49.750Z,2.23
2022-08-24T00:24:18.253Z,2.37
2022-08-24T00:26:47.451Z,2.10
2022-08-24T00:29:16.226Z,2.10
2022-08-24T00:31:44.880Z,2.30
2022-08-24T00:34:14.418Z,2.40
2022-08-24T00:36:44.309Z,2.07
2022-08-24T00:39:13.806Z,2.43
2022-08-24T00:41:43.119Z,2.70
2022-08-24T00:44:11.806Z,2.17
2022-08-24T00:46:45.546Z,2.00
2022-08-24T00:49:20.346Z,2.00
2022-08-24T00:51:55.701Z,2.37
2022-08-24T00:54:25.249Z,2.40
2022-08-24T00:56:56.350Z,2.30
2022-08-24T00:59:26.082Z,2.30
2022-08-24T01:01:55.716Z,2.50
2022-08-24T01:04:30.762Z,2.20
2022-08-24T01:07:00.981Z,2.43
2022-08-24T01:09:29.958Z,1.80
2022-08-24T01:12:00.036Z,2.17
2022-08-24T01:14:28.673Z,2.67
2022-08-24T01:17:14.865Z,2.30
2022-08-24T01:19:45.137Z,2.33
2022-08-24T01:22:24.091Z,2.77
2022-08-24T01:24:54.117Z,2.73
2022-08-24T01:27:27.762Z,2.40
2022-08-24T01:29:57.336Z,2.07
2022-08-24T01:32:27.969Z,2.70
2022-08-24T01:34:56.842Z,2.20
2022-08-24T01:37:25.981Z,2.10
2022-08-24T01:39:59.204Z,2.20
2022-08-24T01:42:30.043Z,2.10
2022-08-24T01:44:58.562Z,2.47
2022-08-24T01:47:27.066Z,2.10
2022-08-24T01:49:55.870Z,2.07
2022-08-24T01:52:25.740Z,2.37
2022-08-24T01:54:54.579Z,1.90
2022-08-24T01:57:27.582Z,2.23
2022-08-24T01:59:56.485Z,2.13
2022-08-24T02:02:27.610Z,2.20
2022-08-24T02:04:56.329Z,2.10
2022-08-24T02:07:25.057Z,2.00
2022-08-24T02:09:53.625Z,2.00
2022-08-24T02:12:22.570Z,2.13
2022-08-24T02:14:52.510Z,1.67
2022-08-24T02:17:22.134Z,2.10
2022-08-24T02:19:50.701Z,2.00
2022-08-24T02:22:19.882Z,2.00
2022-08-24T02:24:48.347Z,1.90
2022-08-24T02:27:17.258Z,2.03
2022-08-24T02:29:46.415Z,2.00
2022-08-24T02:32:16.386Z,2.20
2022-08-24T02:34:45.138Z,1.70
2022-08-24T02:37:14.026Z,2.07
2022-08-24T02:39:42.857Z,1.80
2022-08-24T02:42:11.483Z,2.00
2022-08-24T02:44:40.161Z,1.87
2022-08-24T02:47:09.805Z,2.00
2022-08-24T02:49:39.822Z,2.13
2022-08-24T02:52:08.460Z,2.23
2022-08-24T02:54:36.994Z,2.30
2022-08-24T02:57:05.807Z,2.20
2022-08-24T02:59:34.396Z,1.80
2022-08-24T03:02:02.999Z,1.83
2022-08-24T03:04:31.636Z,2.23
2022-08-24T03:07:04.198Z,1.93
2022-08-24T03:09:32.938Z,2.40
2022-08-24T03:12:01.529Z,2.03
2022-08-24T03:14:30.025Z,2.23
2022-08-24T03:16:58.586Z,2.60
2022-08-24T03:19:27.232Z,2.00
2022-08-24T03:21:55.686Z,2.17
2022-08-24T03:24:25.585Z,2.17
2022-08-24T03:26:54.350Z,2.30
2022-08-24T03:29:24.004Z,2.17
2022-08-24T03:31:52.722Z,2.33
2022-08-24T03:34:21.395Z,2.00
2022-08-24T03:36:49.878Z,2.10
2022-08-24T03:39:18.898Z,2.50
2022-08-24T03:41:48.880Z,2.10
2022-08-24T03:44:21.263Z,2.10
2022-08-24T03:46:52.414Z,2.10
2022-08-24T03:49:21.474Z,2.50
2022-08-24T03:51:50.578Z,2.47
2022-08-24T03:54:20.025Z,2.07
2022-08-24T03:56:49.890Z,2.00
2022-08-24T03:59:20.094Z,2.17
2022-08-24T04:01:48.850Z,1.93
2022-08-24T04:04:17.422Z,1.80
2022-08-24T04:06:46.954Z,2.03
2022-08-24T04:09:16.163Z,2.30
2022-08-24T04:11:46.248Z,2.30
2022-08-24T04:14:26.712Z,2.10
2022-08-24T04:16:57.766Z,2.60
2022-08-24T04:19:26.730Z,2.53
2022-08-24T04:21:57.627Z,2.50
2022-08-24T04:24:26.643Z,3.80
2022-08-24T04:26:55.403Z,2.30
2022-08-24T04:29:25.627Z,2.80
2022-08-24T04:31:54.684Z,2.30
2022-08-24T04:34:23.225Z,2.40
2022-08-24T04:36:51.692Z,2.00
2022-08-24T04:39:20.591Z,2.13
2022-08-24T04:41:49.343Z,2.17
2022-08-24T04:44:19.097Z,2.07
2022-08-24T04:46:49.306Z,2.20
2022-08-24T04:49:17.786Z,2.37
2022-08-24T04:51:46.265Z,2.67
2022-08-24T04:54:15.062Z,2.37
2022-08-24T04:56:43.542Z,2.13
2022-08-24T04:59:12.073Z,2.17
2022-08-24T05:01:44.539Z,2.30
2022-08-24T05:04:14.546Z,2.27
2022-08-24T05:06:43.713Z,2.63
2022-08-24T05:09:12.461Z,1.90
2022-08-24T05:11:41.504Z,2.20
2022-08-24T05:14:18.326Z,2.70
2022-08-24T05:16:53.078Z,2.30
2022-08-24T05:19:24.500Z,2.50
2022-08-24T05:21:53.325Z,2.60
2022-08-24T05:24:22.031Z,2.50
2022-08-24T05:26:51.565Z,2.27
2022-08-24T05:29:21.690Z,2.53
2022-08-24T05:31:50.394Z,2.43
2022-08-24T05:34:19.713Z,2.90
2022-08-24T05:36:49.551Z,2.90
2022-08-24T05:39:18.047Z,2.87
2022-08-24T05:41:48.006Z,2.70
2022-08-24T05:44:18.000Z,2.87
2022-08-24T05:46:46.725Z,2.83
2022-08-24T05:49:15.449Z,2.80
2022-08-24T05:51:43.942Z,3.00
2022-08-24T05:54:14.727Z,3.03
2022-08-24T05:56:43.805Z,2.60
2022-08-24T05:59:12.582Z,2.23
2022-08-24T06:01:44.969Z,2.33
2022-08-24T06:04:14.035Z,2.50
2022-08-24T06:06:42.958Z,2.47
2022-08-24T06:09:12.710Z,2.30
2022-08-24T06:11:43.258Z,2.50
2022-08-24T06:14:14.292Z,2.53
2022-08-24T06:16:43.789Z,2.40
2022-08-24T06:19:13.497Z,2.10
2022-08-24T06:21:42.337Z,2.33
2022-08-24T06:24:10.929Z,2.80
2022-08-24T06:26:56.970Z,2.40
2022-08-24T06:29:26.918Z,2.50
2022-08-24T06:31:56.119Z,2.47
2022-08-24T06:34:26.288Z,2.90
2022-08-24T06:36:55.002Z,2.83
2022-08-24T06:39:23.465Z,2.57
2022-08-24T06:41:52.271Z,2.70
2022-08-24T06:44:20.920Z,2.40
2022-08-24T06:46:52.665Z,2.60
2022-08-24T06:49:21.777Z,2.63
2022-08-24T06:51:50.993Z,2.20
2022-08-24T06:54:21.927Z,2.10
2022-08-24T06:56:50.647Z,2.30
2022-08-24T06:59:19.133Z,2.33
2022-08-24T07:01:47.671Z,2.23
2022-08-24T07:04:17.830Z,1.90
2022-08-24T07:06:46.676Z,2.27
2022-08-24T07:09:16.161Z,2.20
2022-08-24T07:11:45.134Z,2.40
2022-08-24T07:14:13.609Z,1.80
2022-08-24T07:16:42.914Z,2.13
2022-08-24T07:19:11.614Z,2.30
2022-08-24T07:21:41.498Z,2.00
2022-08-24T07:24:10.823Z,2.00
2022-08-24T07:26:40.178Z,1.83
2022-08-24T07:29:30.657Z,1.80
2022-08-24T07:32:01.922Z,2.00
2022-08-24T07:34:30.665Z,1.73
2022-08-24T07:37:00.561Z,1.90
2022-08-24T07:39:29.189Z,1.87
2022-08-24T07:42:17.411Z,2.17
2022-08-24T07:44:47.013Z,1.67
2022-08-24T07:47:36.963Z,1.60
2022-08-24T07:50:04.131Z,1.67
2022-08-24T07:52:34.000Z,1.47
2022-08-24T07:55:02.582Z,1.63
2022-08-24T07:57:31.257Z,1.50
2022-08-24T08:00:00.914Z,1.60
2022-08-24T08:02:32.750Z,1.33
2022-08-24T08:05:05.123Z,1.50
2022-08-24T08:07:34.986Z,1.23
2022-08-24T08:10:03.725Z,1.60
2022-08-24T08:12:32.373Z,1.37
2022-08-24T08:15:00.967Z,1.40
2022-08-24T08:17:29.487Z,1.23
2022-08-24T08:19:58.137Z,1.63
2022-08-24T08:22:44.464Z,1.27
2022-08-24T08:25:14.558Z,1.43
2022-08-24T08:30:12.918Z,1.27
2022-08-24T08:32:41.574Z,1.50
2022-08-24T08:35:10.446Z,1.70
2022-08-24T08:37:39.490Z,1.50
2022-08-24T08:40:11.645Z,1.40
2022-08-24T08:42:58.277Z,1.47
2022-08-24T08:45:33.466Z,1.30
2022-08-24T08:48:26.139Z,1.40
2022-08-24T08:51:12.137Z,1.40
2022-08-24T08:54:00.806Z,1.20
2022-08-24T08:56:35.825Z,1.40
2022-08-24T08:59:09.258Z,1.20
2022-08-24T09:01:46.832Z,1.10
2022-08-24T09:04:26.555Z,1.10
2022-08-24T09:07:09.024Z,1.00
2022-08-24T09:09:43.281Z,0.90
2022-08-24T09:12:16.921Z,0.93
2022-08-24T09:15:06.162Z,1.13
2022-08-24T09:17:48.809Z,1.00
2022-08-24T09:20:37.545Z,0.90
2022-08-24T09:23:10.453Z,1.10
2022-08-24T09:25:46.526Z,1.10
2022-08-24T09:28:17.397Z,0.90
2022-08-24T09:30:58.347Z,0.90
2022-08-24T09:33:28.693Z,0.90
2022-08-24T09:36:08.145Z,0.90
2022-08-24T09:39:06.978Z,0.80
2022-08-24T09:42:01.913Z,0.90
2022-08-24T09:44:42.951Z,1.13
2022-08-24T09:47:22.875Z,1.10
2022-08-24T09:50:09.350Z,1.20
2022-08-24T09:53:00.364Z,1.50
2022-08-24T09:55:39.930Z,1.00
2022-08-24T09:58:14.193Z,1.10
2022-08-24T10:00:47.361Z,1.23
2022-08-24T10:03:36.278Z,1.00
2022-08-24T10:06:17.967Z,0.98
2022-08-24T10:08:53.942Z,0.80
2022-08-24T10:11:26.258Z,0.70
2022-08-24T10:13:59.191Z,1.00
2022-08-24T10:16:32.628Z,0.80
2022-08-24T10:19:08.399Z,1.10
2022-08-24T10:21:42.486Z,1.40
2022-08-24T10:24:31.626Z,1.00
2022-08-24T10:27:05.781Z,0.95
2022-08-24T10:29:41.750Z,1.00
2022-08-24T10:32:16.370Z,0.93
2022-08-24T10:34:56.181Z,1.15
2022-08-24T10:37:48.654Z,1.23
2022-08-24T10:40:28.302Z,1.02
2022-08-24T10:43:36.123Z,1.10
2022-08-24T10:46:23.143Z,1.08
2022-08-24T10:49:12.421Z,1.08
2022-08-24T10:51:50.387Z,1.10
2022-08-24T10:54:20.710Z,1.10
2022-08-24T10:56:55.917Z,1.10
2022-08-24T10:59:25.610Z,1.17
2022-08-24T11:02:03.179Z,0.90
2022-08-24T11:04:40.907Z,1.20
2022-08-24T11:07:17.702Z,0.98
2022-08-24T11:09:47.938Z,1.20
2022-08-24T11:12:23.933Z,0.93
2022-08-24T11:14:53.269Z,0.95
2022-08-24T11:17:23.381Z,1.00
2022-08-24T11:19:52.509Z,1.55
2022-08-24T11:22:30.364Z,1.00
2022-08-24T11:25:00.442Z,1.25
2022-08-24T11:27:32.771Z,1.20
2022-08-24T11:30:12.806Z,1.02
2022-08-24T11:32:43.501Z,1.00
2022-08-24T11:35:19.173Z,1.30
2022-08-24T11:37:49.763Z,1.20
2022-08-24T11:40:19.685Z,1.00
2022-08-24T11:43:02.469Z,1.13
2022-08-24T11:45:37.069Z,1.30
2022-08-24T11:48:12.317Z,1.23
2022-08-24T11:50:42.594Z,1.30
2022-08-24T11:53:15.846Z,1.38
2022-08-24T11:55:51.699Z,1.30
2022-08-24T11:58:30.222Z,1.08
2022-08-24T12:01:02.201Z,1.30
2022-08-24T12:03:41.422Z,1.40
2022-08-24T12:06:14.979Z,1.40
2022-08-24T12:08:48.315Z,1.40
2022-08-24T12:11:19.003Z,1.20
2022-08-24T12:13:50.750Z,1.10
2022-08-24T12:16:21.825Z,1.48
2022-08-24T12:18:55.745Z,1.30
2022-08-24T12:21:26.992Z,1.20
2022-08-24T12:24:00.950Z,1.10
2022-08-24T12:26:32.175Z,1.42
2022-08-24T12:29:03.035Z,1.30
2022-08-24T12:31:36.765Z,1.80
2022-08-24T12:34:09.749Z,1.23
2022-08-24T12:36:40.954Z,1.40
2022-08-24T12:39:14.550Z,1.30
2022-08-24T12:41:49.971Z,1.45
2022-08-24T12:44:18.861Z,1.30
2022-08-24T12:46:54.449Z,1.30
2022-08-24T12:49:26.674Z,1.50
2022-08-24T12:52:04.079Z,1.10
2022-08-24T12:54:43.086Z,1.27
2022-08-24T12:57:15.530Z,1.40
2022-08-24T12:59:47.453Z,1.33
2022-08-24T13:02:32.032Z,1.17
2022-08-24T13:05:02.007Z,1.40
2022-08-24T13:07:32.089Z,1.40
2022-08-24T13:10:12.137Z,1.40
2022-08-24T13:13:09.557Z,1.67
2022-08-24T13:15:56.920Z,1.23
2022-08-24T13:18:48.298Z,1.20
2022-08-24T13:21:18.641Z,1.60
2022-08-24T13:23:47.278Z,1.30
2022-08-24T13:26:26.746Z,1.35
2022-08-24T13:28:57.427Z,1.25
2022-08-24T13:31:32.700Z,1.17
2022-08-24T13:34:22.100Z,1.65
2022-08-24T13:36:54.775Z,1.48
2022-08-24T13:39:50.376Z,1.60
2022-08-24T13:42:42.384Z,1.23
2022-08-24T13:45:17.395Z,1.38
2022-08-24T13:47:52.341Z,1.40
2022-08-24T13:50:32.121Z,1.20
2022-08-24T13:53:07.425Z,1.40
2022-08-24T13:55:40.402Z,1.27
2022-08-24T13:58:14.834Z,1.42
2022-08-24T14:00:50.718Z,1.30
2022-08-24T14:03:37.090Z,1.58
2022-08-24T14:06:21.394Z,1.50
2022-08-24T14:08:53.457Z,1.42
2022-08-24T14:11:34.334Z,1.42
2022-08-24T14:14:08.046Z,1.40
2022-08-24T14:16:57.805Z,1.40
2022-08-24T14:19:33.325Z,1.33
2022-08-24T14:22:05.022Z,1.58
2022-08-24T14:24:39.595Z,1.85
2022-08-24T14:27:13.437Z,1.38
2022-08-24T14:29:50.481Z,1.30
2022-08-24T14:32:30.051Z,1.45
2022-08-24T14:35:05.085Z,1.52
2022-08-24T14:37:37.038Z,1.75
2022-08-24T14:40:14.045Z,1.48
2022-08-24T14:42:47.345Z,1.42
2022-08-24T14:45:24.739Z,1.50
2022-08-24T14:48:00.407Z,1.60
2022-08-24T14:50:34.292Z,1.50
2022-08-24T14:53:09.029Z,1.40
2022-08-24T14:55:42.678Z,1.30
2022-08-24T14:58:29.217Z,1.33
2022-08-24T15:01:09.150Z,1.52
2022-08-24T15:03:58.715Z,1.55
2022-08-24T15:06:29.035Z,1.40
2022-08-24T15:09:07.986Z,1.35
2022-08-24T15:11:38.145Z,1.13
2022-08-24T15:14:07.563Z,1.45
2022-08-24T15:16:53.890Z,1.30
2022-08-24T15:19:27.323Z,1.48
2022-08-24T15:21:58.212Z,1.35
2022-08-24T15:24:34.036Z,1.25
2022-08-24T15:27:11.906Z,1.20
2022-08-24T15:29:48.341Z,1.55
2022-08-24T15:32:19.013Z,1.33
2022-08-24T15:34:48.947Z,1.48
2022-08-24T15:37:18.581Z,1.40
2022-08-24T15:39:47.221Z,1.50
2022-08-24T15:42:16.635Z,1.40
2022-08-24T15:44:46.593Z,1.30
2022-08-24T15:47:19.810Z,2.00
2022-08-24T15:49:51.898Z,11.02
2022-08-24T15:52:35.258Z,4.60
2022-08-24T15:55:06.515Z,2.88
2022-08-24T15:57:41.418Z,2.15
2022-08-24T16:00:11.265Z,1.88
2022-08-24T16:02:39.023Z,1.50
2022-08-24T16:05:18.974Z,1.95
2022-08-24T16:08:07.375Z,1.83
2022-08-24T16:10:39.279Z,1.85
2022-08-24T16:13:08.771Z,1.67
2022-08-24T16:15:46.291Z,1.73
2022-08-24T16:18:15.460Z,1.40
2022-08-24T16:20:46.295Z,1.50
2022-08-24T16:23:23.126Z,1.50
2022-08-24T16:25:52.476Z,1.70
2022-08-24T16:28:35.234Z,1.50
2022-08-24T16:31:07.765Z,1.60
2022-08-24T16:33:44.426Z,1.60
2022-08-24T16:36:15.566Z,1.42
2022-08-24T16:38:49.088Z,1.45
2022-08-24T16:41:19.335Z,1.40
2022-08-24T16:43:48.050Z,1.50
2022-08-24T16:46:20.536Z,1.48
2022-08-24T16:48:49.184Z,1.80
2022-08-24T16:51:19.077Z,1.38
2022-08-24T16:53:47.683Z,1.52
2022-08-24T16:56:16.937Z,1.33
2022-08-24T16:58:45.706Z,1.60
2022-08-24T17:01:15.022Z,1.38
2022-08-24T17:03:43.759Z,1.45
2022-08-24T17:06:13.302Z,1.70
2022-08-24T17:08:43.530Z,1.58
2022-08-24T17:11:12.750Z,1.80
2022-08-24T17:13:50.162Z,1.80
2022-08-24T17:16:19.938Z,1.90
2022-08-24T17:18:48.650Z,1.50
2022-08-24T17:21:17.183Z,1.73
2022-08-24T17:23:47.355Z,1.70
2022-08-24T17:26:19.392Z,1.70
2022-08-24T17:28:50.579Z,1.50
2022-08-24T17:31:19.104Z,1.52
2022-08-24T17:33:47.598Z,1.83
2022-08-24T17:36:16.678Z,1.80
2022-08-24T17:38:49.408Z,1.70
2022-08-24T17:41:23.759Z,1.67
2022-08-24T17:43:52.400Z,1.67
2022-08-24T17:46:22.018Z,1.77
2022-08-24T17:48:50.738Z,1.80
2022-08-24T17:51:19.422Z,1.87
2022-08-24T17:53:47.901Z,1.70
2022-08-24T17:56:17.172Z,1.80
2022-08-24T17:59:05.251Z,1.80
2022-08-24T18:01:34.295Z,1.70
2022-08-24T18:04:02.842Z,1.70
2022-08-24T18:06:31.450Z,2.07
2022-08-24T18:09:02.777Z,1.80
2022-08-24T18:11:31.373Z,1.70
2022-08-24T18:14:01.696Z,2.00
2022-08-24T18:16:30.282Z,2.00
2022-08-24T18:18:58.965Z,2.07
2022-08-24T18:21:27.600Z,1.50
2022-08-24T18:23:58.245Z,1.83
2022-08-24T18:26:29.301Z,2.17
2022-08-24T18:29:02.515Z,1.93
2022-08-24T18:31:33.655Z,2.10
2022-08-24T18:34:06.425Z,1.67
2022-08-24T18:36:39.807Z,2.00
2022-08-24T18:39:08.631Z,2.30
2022-08-24T18:41:38.636Z,2.03
2022-08-24T18:44:17.823Z,2.07
2022-08-24T18:46:47.936Z,2.13
2022-08-24T18:49:16.681Z,2.47
2022-08-24T18:51:48.110Z,2.13
2022-08-24T18:54:17.929Z,2.03
2022-08-24T18:56:47.000Z,2.03
2022-08-24T18:59:16.518Z,2.00
2022-08-24T19:02:02.851Z,2.00
2022-08-24T19:04:33.302Z,1.80
2022-08-24T19:07:02.268Z,2.20
2022-08-24T19:09:34.330Z,1.80
2022-08-24T19:12:03.554Z,2.10
2022-08-24T19:14:32.221Z,1.93
2022-08-24T19:17:00.825Z,2.10
2022-08-24T19:19:29.713Z,2.13
2022-08-24T19:21:59.814Z,1.93
2022-08-24T19:24:29.362Z,1.90
2022-08-24T19:27:01.720Z,2.10
2022-08-24T19:29:54.645Z,1.90
2022-08-24T19:32:22.527Z,1.97
2022-08-24T19:34:51.861Z,2.20
2022-08-24T19:37:22.004Z,2.03
2022-08-24T19:39:51.150Z,2.10
2022-08-24T19:42:20.025Z,1.73
2022-08-24T19:45:06.646Z,2.10
2022-08-24T19:47:35.305Z,2.00
2022-08-24T19:50:03.978Z,2.40
2022-08-24T19:52:34.626Z,2.20
2022-08-24T19:55:04.062Z,2.20
2022-08-24T19:57:37.268Z,1.97
2022-08-24T20:00:21.729Z,1.90
2022-08-24T20:02:51.314Z,2.00
2022-08-24T20:05:21.018Z,2.20
2022-08-24T20:07:51.814Z,2.27
2022-08-24T20:10:21.694Z,2.40
2022-08-24T20:12:50.690Z,1.97
2022-08-24T20:15:19.815Z,2.20
2022-08-24T20:17:48.475Z,2.43
2022-08-24T20:20:18.510Z,2.30
2022-08-24T20:22:47.200Z,2.40
2022-08-24T20:25:17.357Z,2.40
2022-08-24T20:27:46.643Z,2.00
2022-08-24T20:30:15.999Z,2.50
2022-08-24T20:32:44.782Z,2.37
2022-08-24T20:35:16.551Z,2.60
2022-08-24T20:37:45.068Z,2.37
2022-08-24T20:40:16.013Z,2.50
2022-08-24T20:42:46.001Z,2.70
2022-08-24T20:45:14.971Z,2.13
2022-08-24T20:47:45.932Z,2.30
2022-08-24T20:50:15.398Z,2.40
2022-08-24T20:52:43.953Z,2.50
2022-08-24T20:55:14.006Z,2.37
2022-08-24T20:57:45.694Z,2.23
2022-08-24T21:00:16.461Z,2.47
2022-08-24T21:02:45.266Z,2.20
2022-08-24T21:05:14.150Z,2.30
2022-08-24T21:07:49.470Z,2.30
2022-08-24T21:10:18.306Z,2.20
2022-08-24T21:12:46.910Z,2.20
2022-08-24T21:15:17.231Z,2.40
2022-08-24T21:17:46.515Z,2.20
2022-08-24T21:20:16.839Z,2.20
2022-08-24T21:22:46.229Z,2.60
2022-08-24T21:25:17.100Z,2.57
2022-08-24T21:27:46.745Z,3.30
2022-08-24T21:30:17.034Z,2.60
2022-08-24T21:33:04.975Z,2.70
2022-08-24T21:35:33.961Z,2.40
2022-08-24T21:38:02.461Z,2.70
2022-08-24T21:40:33.608Z,2.60
2022-08-24T21:43:02.310Z,2.40
2022-08-24T21:45:31.966Z,2.50
2022-08-24T21:48:02.156Z,2.30
2022-08-24T21:50:30.749Z,2.63
2022-08-24T21:52:59.321Z,3.27
2022-08-24T21:55:28.142Z,2.80
2022-08-24T21:57:56.742Z,2.50
2022-08-24T22:00:25.751Z,2.53
2022-08-24T22:02:54.285Z,4.00
2022-08-24T22:05:24.284Z,2.70
2022-08-24T22:07:52.874Z,2.43
2022-08-24T22:10:21.438Z,2.90
2022-08-24T22:12:51.122Z,2.80
2022-08-24T22:15:23.155Z,3.20
2022-08-24T22:17:52.934Z,2.90
2022-08-24T22:20:23.332Z,2.70
2022-08-24T22:22:53.510Z,2.97
2022-08-24T22:25:22.097Z,2.70
2022-08-24T22:27:50.747Z,2.87
2022-08-24T22:30:20.083Z,2.87
2022-08-24T22:32:48.805Z,2.43
2022-08-24T22:35:17.514Z,2.50
2022-08-24T22:37:46.043Z,2.57
2022-08-24T22:40:17.155Z,2.47
2022-08-24T22:42:47.750Z,2.60
2022-08-24T22:45:16.625Z,2.70
2022-08-24T22:47:45.107Z,3.20
2022-08-24T22:50:13.721Z,3.00
2022-08-24T22:52:42.325Z,2.60
2022-08-24T22:55:11.298Z,3.17
2022-08-24T22:57:41.285Z,2.90
2022-08-24T23:00:17.061Z,2.80
2022-08-24T23:02:45.682Z,3.17
2022-08-24T23:05:14.491Z,2.83
2022-08-24T23:07:42.999Z,2.97
2022-08-24T23:10:12.387Z,3.10
2022-08-24T23:12:42.374Z,2.80
2022-08-24T23:15:11.502Z,2.90
2022-08-24T23:17:40.110Z,3.40
2022-08-24T23:20:09.673Z,3.03
2022-08-24T23:22:39.845Z,3.30
2022-08-24T23:25:09.112Z,3.13
2022-08-24T23:27:38.967Z,3.03
2022-08-24T23:30:11.544Z,2.87
2022-08-24T23:32:40.456Z,2.70
2022-08-24T23:35:09.613Z,2.80
2022-08-24T23:37:38.276Z,2.77
2022-08-24T23:40:07.504Z,2.53
2022-08-24T23:42:36.030Z,2.80
2022-08-24T23:45:05.914Z,3.00
2022-08-24T23:47:39.071Z,3.17
2022-08-24T23:50:11.003Z,3.07
2022-08-24T23:52:39.915Z,3.10
2022-08-24T23:55:21.244Z,2.93
2022-08-24T23:57:50.890Z,2.80
